Time;durP1;ratioP1;P1;durP2;ratioP2;P2;SDS_P1;SDS_P2;PMS_P1;PMS_P2;Temp;Humidity;BMP_temperature;BMP_pressure;BME280_temperature;BME280_humidity;BME280_pressure;Samples;Min_cycle;Max_cycle;Signal;HPM_P1;HPM_P2
2022/05/20 00:01:50;;;;;;;9.52;4.80;;;13.60;99.90;;;;;;4990281;28;20060;-70
2022/05/20 00:04:16;;;;;;;8.45;5.40;;;13.50;99.90;;;;;;4990808;28;20038;-69
2022/05/20 00:06:42;;;;;;;10.10;4.82;;;13.50;99.90;;;;;;4980415;28;20046;-70
2022/05/20 00:09:08;;;;;;;11.75;5.22;;;13.60;99.90;;;;;;4992369;28;20173;-70
2022/05/20 00:11:35;;;;;;;11.18;5.32;;;13.50;99.90;;;;;;4993432;28;20057;-70
2022/05/20 00:14:01;;;;;;;8.45;5.22;;;13.50;99.90;;;;;;4995371;28;20034;-70
2022/05/20 00:16:29;;;;;;;9.48;5.65;;;13.60;99.90;;;;;;4989912;28;20054;-70
2022/05/20 00:18:55;;;;;;;8.57;5.68;;;13.60;99.90;;;;;;4973789;28;20068;-69
2022/05/20 00:21:23;;;;;;;11.98;6.43;;;13.60;99.90;;;;;;4986625;28;20039;-69
2022/05/20 00:23:48;;;;;;;12.32;5.90;;;13.60;99.90;;;;;;4990219;28;20064;-70
2022/05/20 00:26:14;;;;;;;10.98;5.90;;;13.50;99.90;;;;;;4991130;28;20489;-70
2022/05/20 00:28:40;;;;;;;15.05;6.20;;;13.60;99.90;;;;;;4986556;28;20038;-70
2022/05/20 00:31:09;;;;;;;11.10;5.88;;;13.60;99.90;;;;;;4989737;28;20124;-69
2022/05/20 00:33:37;;;;;;;13.32;6.25;;;13.50;99.90;;;;;;4984935;28;20117;-69
2022/05/20 00:36:04;;;;;;;13.45;6.43;;;13.50;99.90;;;;;;4991990;28;20046;-69
2022/05/20 00:38:30;;;;;;;9.65;6.50;;;13.50;99.90;;;;;;4989779;28;20082;-69
2022/05/20 00:40:58;;;;;;;10.07;6.40;;;13.50;99.90;;;;;;4994546;28;20062;-69
2022/05/20 00:43:28;;;;;;;9.55;6.05;;;13.50;99.90;;;;;;4993533;28;20121;-70
2022/05/20 00:45:56;;;;;;;11.25;6.70;;;13.50;99.90;;;;;;4991202;28;20046;-70
2022/05/20 00:48:22;;;;;;;13.75;6.38;;;13.40;99.90;;;;;;4980697;28;20265;-69
2022/05/20 00:51:11;;;;;;;9.23;6.43;;;13.30;99.90;;;;;;4982361;28;20829;-70
2022/05/20 00:54:07;;;;;;;10.90;7.63;;;13.30;99.90;;;;;;4985821;28;20053;-70
2022/05/20 00:56:48;;;;;;;15.18;9.45;;;13.20;99.90;;;;;;4986344;28;20193;-69
2022/05/20 00:59:18;;;;;;;12.75;8.30;;;13.10;99.90;;;;;;5004897;28;20497;-68
2022/05/20 01:01:47;;;;;;;13.02;8.88;;;13.10;99.90;;;;;;4989758;28;20053;-68
2022/05/20 01:04:15;;;;;;;12.98;9.38;;;13.10;99.90;;;;;;5003118;28;20042;-70
2022/05/20 01:06:41;;;;;;;14.13;9.27;;;13.10;99.90;;;;;;4988839;28;20627;-69
2022/05/20 01:09:07;;;;;;;18.90;10.32;;;13.00;99.90;;;;;;4991936;28;20042;-68
2022/05/20 01:11:35;;;;;;;14.07;9.80;;;12.90;99.90;;;;;;4981611;28;20043;-69
2022/05/20 01:14:01;;;;;;;17.38;10.73;;;12.90;99.90;;;;;;4987916;28;20489;-69
2022/05/20 01:16:28;;;;;;;19.73;10.88;;;12.90;99.90;;;;;;4987057;28;20042;-69
2022/05/20 01:18:56;;;;;;;18.00;11.20;;;12.80;99.90;;;;;;4986045;28;20441;-69
2022/05/20 01:21:22;;;;;;;17.00;11.57;;;12.80;99.90;;;;;;4985951;28;20492;-70
2022/05/20 01:23:48;;;;;;;18.27;11.30;;;12.80;99.90;;;;;;4990188;28;20090;-70
2022/05/20 01:26:15;;;;;;;18.73;12.48;;;12.80;99.90;;;;;;5001507;28;20042;-70
2022/05/20 01:28:41;;;;;;;16.48;11.13;;;12.70;99.90;;;;;;4993327;28;20050;-70
2022/05/20 01:31:15;;;;;;;17.45;12.73;;;12.70;99.90;;;;;;4980303;28;21585;-70
2022/05/20 01:33:46;;;;;;;18.35;11.63;;;12.70;99.90;;;;;;4987914;28;20154;-70
2022/05/20 01:36:19;;;;;;;23.65;12.52;;;12.70;99.90;;;;;;4987255;28;20536;-69
2022/05/20 01:38:45;;;;;;;19.05;12.98;;;12.60;99.90;;;;;;4984783;28;20485;-68
2022/05/20 01:41:20;;;;;;;21.63;13.55;;;12.70;99.90;;;;;;4991906;28;20049;-68
2022/05/20 01:43:51;;;;;;;26.77;13.20;;;12.60;99.90;;;;;;4987007;28;20054;-69
2022/05/20 01:46:26;;;;;;;20.55;13.35;;;12.70;99.90;;;;;;4990928;28;21317;-70
2022/05/20 01:49:11;;;;;;;19.85;12.75;;;12.60;99.90;;;;;;4981175;28;20136;-69
2022/05/20 01:52:00;;;;;;;17.95;12.43;;;12.60;99.90;;;;;;4993082;28;20042;-68
2022/05/20 01:54:39;;;;;;;;;;;12.60;99.90;;;;;;4978638;28;20046;-69
2022/05/20 01:57:22;;;;;;;19.27;12.65;;;12.60;99.90;;;;;;4986469;28;20001;-70
2022/05/20 01:59:53;;;;;;;25.52;12.98;;;12.60;99.90;;;;;;4989327;28;20038;-69
2022/05/20 02:02:42;;;;;;;18.38;12.65;;;12.60;99.90;;;;;;4988043;28;20047;-69
2022/05/20 02:05:18;;;;;;;22.35;14.82;;;12.60;99.90;;;;;;5003913;28;20054;-69
2022/05/20 02:07:49;;;;;;;21.10;14.10;;;12.60;99.90;;;;;;4988759;28;20046;-69
2022/05/20 02:10:46;;;;;;;23.20;14.43;;;12.60;99.90;;;;;;4992011;28;20074;-69
2022/05/20 02:13:17;;;;;;;21.08;14.57;;;12.50;99.90;;;;;;4976821;28;20146;-69
2022/05/20 02:15:56;;;;;;;22.33;15.63;;;12.50;99.90;;;;;;4991301;28;20116;-70
2022/05/20 02:18:25;;;;;;;;;;;12.50;99.90;;;;;;4988006;28;20126;-69
2022/05/20 02:20:54;;;;;;;24.75;15.20;;;12.50;99.90;;;;;;4988523;28;19922;-69
2022/05/20 02:23:25;;;;;;;22.45;14.20;;;12.50;99.90;;;;;;4989037;28;20043;-68
2022/05/20 02:25:57;;;;;;;20.73;14.20;;;12.50;99.90;;;;;;5002152;28;20129;-69
2022/05/20 02:28:31;;;;;;;22.30;14.90;;;12.50;99.90;;;;;;4988638;28;20064;-69
2022/05/20 02:30:58;;;;;;;22.67;15.05;;;12.40;99.90;;;;;;4983805;28;20089;-69
2022/05/20 02:33:26;;;;;;;21.13;15.07;;;12.40;99.90;;;;;;4994593;28;20042;-69
2022/05/20 02:35:59;;;;;;;;;;;12.40;99.90;;;;;;4985983;28;20065;-69
2022/05/20 02:38:25;;;;;;;29.23;14.43;;;12.30;99.90;;;;;;4989669;28;19992;-69
2022/05/20 02:40:52;;;;;;;23.02;13.45;;;12.40;99.90;;;;;;4964872;28;20476;-69
2022/05/20 02:43:19;;;;;;;18.60;14.02;;;12.40;99.90;;;;;;4987581;28;20034;-70
2022/05/20 02:45:47;;;;;;;20.73;14.32;;;12.40;99.90;;;;;;4989926;28;20058;-68
2022/05/20 02:48:17;;;;;;;24.17;13.85;;;12.40;99.90;;;;;;4992690;28;20113;-69
2022/05/20 02:50:43;;;;;;;22.23;13.95;;;12.40;99.90;;;;;;4989115;28;20131;-70
2022/05/20 02:53:09;;;;;;;22.63;14.52;;;12.40;99.90;;;;;;4990844;28;20128;-70
2022/05/20 02:55:35;;;;;;;20.77;13.13;;;12.50;99.90;;;;;;4995170;28;20455;-69
2022/05/20 02:58:01;;;;;;;25.27;15.30;;;12.40;99.90;;;;;;4986374;28;20069;-69
2022/05/20 03:05:56;;;;;;;22.55;14.05;;;12.40;99.90;;;;;;4988543;28;20137;-69
2022/05/20 03:08:22;;;;;;;23.38;15.30;;;12.40;99.90;;;;;;4993738;28;20046;-68
2022/05/20 03:10:48;;;;;;;22.08;14.32;;;12.30;99.90;;;;;;4992998;28;20102;-69
2022/05/20 03:13:14;;;;;;;25.33;13.57;;;12.30;99.90;;;;;;4989687;28;20046;-69
2022/05/20 03:15:41;;;;;;;19.75;13.98;;;12.30;99.90;;;;;;4989399;28;20448;-69
2022/05/20 03:18:10;;;;;;;20.45;13.10;;;12.20;99.90;;;;;;4991841;28;20042;-69
2022/05/20 03:20:41;;;;;;;22.42;13.43;;;12.20;99.90;;;;;;4996422;28;20053;-69
2022/05/20 03:23:07;;;;;;;22.70;12.93;;;12.20;99.90;;;;;;4989325;28;20050;-69
2022/05/20 03:25:35;;;;;;;22.27;13.93;;;12.10;99.90;;;;;;4989686;28;20041;-69
2022/05/20 03:28:02;;;;;;;;;;;12.20;99.90;;;;;;4985860;28;20049;-69
2022/05/20 03:30:28;;;;;;;23.23;14.13;;;12.10;99.90;;;;;;4992844;28;19928;-69
2022/05/20 03:32:54;;;;;;;22.83;14.13;;;12.10;99.90;;;;;;4987264;28;20030;-69
2022/05/20 03:35:20;;;;;;;27.17;15.13;;;12.10;99.90;;;;;;4992909;28;20042;-69
2022/05/20 03:37:45;;;;;;;21.88;14.48;;;12.20;99.90;;;;;;4988933;28;20043;-68
2022/05/20 03:40:11;;;;;;;23.83;14.98;;;12.20;99.90;;;;;;4988540;28;20034;-69
2022/05/20 03:42:38;;;;;;;23.08;14.00;;;12.10;99.90;;;;;;4980213;28;20090;-69
2022/05/20 03:45:04;;;;;;;24.05;15.25;;;12.10;99.90;;;;;;4990772;28;20088;-70
2022/05/20 03:47:30;;;;;;;25.52;15.40;;;12.00;99.90;;;;;;4991606;28;20043;-70
2022/05/20 03:49:55;;;;;;;24.65;14.68;;;12.00;99.90;;;;;;4993760;28;20038;-70
2022/05/20 03:52:21;;;;;;;27.65;15.63;;;12.00;99.90;;;;;;4995530;28;20033;-70
2022/05/20 03:54:47;;;;;;;26.33;15.65;;;12.00;99.90;;;;;;4984144;28;20030;-70
2022/05/20 03:57:12;;;;;;;19.88;14.93;;;12.10;99.90;;;;;;4989089;28;20165;-70
2022/05/20 03:59:38;;;;;;;22.45;16.02;;;12.00;99.90;;;;;;4983403;28;20057;-69
2022/05/20 04:02:06;;;;;;;22.88;15.88;;;12.00;99.90;;;;;;4990955;28;20038;-69
2022/05/20 04:04:46;;;;;;;29.85;17.13;;;11.90;99.90;;;;;;4988065;28;20038;-69
2022/05/20 04:07:24;;;;;;;31.52;17.98;;;12.00;99.90;;;;;;4991295;28;20057;-69
2022/05/20 04:09:50;;;;;;;26.13;18.30;;;12.00;99.90;;;;;;4988294;28;20046;-69
2022/05/20 04:12:24;;;;;;;27.48;17.65;;;12.10;99.90;;;;;;4993830;28;20038;-69
2022/05/20 04:14:51;;;;;;;29.70;19.65;;;12.10;99.90;;;;;;4991538;28;20504;-70
2022/05/20 04:17:16;;;;;;;26.38;18.58;;;12.10;99.90;;;;;;4992060;28;20050;-68
2022/05/20 04:19:42;;;;;;;25.85;18.55;;;12.20;99.90;;;;;;4991786;28;20378;-69
2022/05/20 04:22:11;;;;;;;21.80;16.77;;;12.20;99.90;;;;;;4991937;28;20038;-69
2022/05/20 04:24:37;;;;;;;25.42;18.27;;;12.30;99.90;;;;;;4983934;28;20097;-68
2022/05/20 04:27:03;;;;;;;32.75;19.48;;;12.40;99.90;;;;;;4987094;28;20057;-69
2022/05/20 04:29:29;;;;;;;26.77;17.25;;;12.30;99.90;;;;;;4994757;28;20169;-70
2022/05/20 04:31:56;;;;;;;27.67;18.45;;;12.30;99.90;;;;;;4990353;28;20053;-68
2022/05/20 04:34:22;;;;;;;27.30;19.42;;;12.30;99.90;;;;;;4991688;28;20054;-70
2022/05/20 04:36:48;;;;;;;27.35;18.45;;;12.30;99.90;;;;;;4986569;28;20039;-68
2022/05/20 04:39:14;;;;;;;29.38;18.73;;;12.40;99.90;;;;;;4985353;28;20046;-69
2022/05/20 04:47:15;;;;;;;23.77;17.85;;;12.40;99.90;;;;;;4980002;28;20121;-69
2022/05/20 04:49:42;;;;;;;26.52;18.83;;;12.40;99.90;;;;;;4991916;28;20073;-69
2022/05/20 04:52:08;;;;;;;25.65;18.63;;;12.40;99.90;;;;;;4988538;28;20137;-69
2022/05/20 04:54:55;;;;;;;24.50;17.58;;;12.40;99.90;;;;;;4988069;28;20129;-70
2022/05/20 04:57:23;;;;;;;27.73;18.67;;;12.50;99.90;;;;;;4982379;28;20121;-70
2022/05/20 04:59:51;;;;;;;;;;;12.50;99.90;;;;;;4990713;28;20053;-70
2022/05/20 05:02:17;;;;;;;26.40;17.48;;;12.50;99.90;;;;;;4986860;28;19932;-71
2022/05/20 05:04:44;;;;;;;22.48;16.58;;;12.50;99.90;;;;;;4984471;28;20043;-69
2022/05/20 05:07:11;;;;;;;26.98;19.20;;;12.50;99.90;;;;;;4987831;28;20061;-69
2022/05/20 05:09:41;;;;;;;22.75;16.10;;;12.50;99.90;;;;;;4988912;28;20050;-69
2022/05/20 05:12:08;;;;;;;23.98;16.83;;;12.60;99.90;;;;;;4988589;28;20425;-69
2022/05/20 05:14:49;;;;;;;24.15;17.15;;;12.60;99.90;;;;;;4984905;28;20126;-71
2022/05/20 05:18:09;;;;;;;26.40;16.42;;;12.70;99.90;;;;;;4989416;28;20511;-70
2022/05/20 05:20:06;;;;;;;23.50;16.45;;;12.80;99.90;;;;;;4974170;28;20120;-70
2022/05/20 05:22:33;;;;;;;;;;;12.90;99.90;;;;;;4990161;28;20042;-69
2022/05/20 05:24:58;;;;;;;25.13;14.15;;;13.00;99.90;;;;;;4988501;28;19921;-70
2022/05/20 05:27:24;;;;;;;22.92;15.88;;;13.10;99.90;;;;;;4985571;28;20042;-70
2022/05/20 05:29:49;;;;;;;27.77;14.27;;;13.10;99.90;;;;;;4991181;28;20046;-69
2022/05/20 05:32:15;;;;;;;18.70;14.02;;;13.10;99.90;;;;;;4986613;28;20061;-70
2022/05/20 05:34:41;;;;;;;24.45;15.00;;;13.20;99.90;;;;;;4988454;28;20062;-70
2022/05/20 05:37:07;;;;;;;20.63;14.07;;;13.30;99.90;;;;;;4983822;28;20447;-70
2022/05/20 05:39:33;;;;;;;21.30;14.98;;;13.30;99.90;;;;;;4990783;28;20416;-70
2022/05/20 05:42:00;;;;;;;25.00;14.30;;;13.40;99.90;;;;;;4982562;28;20049;-70
2022/05/20 05:44:26;;;;;;;19.30;13.77;;;13.50;99.90;;;;;;4999727;28;20046;-70
2022/05/20 05:46:55;;;;;;;24.52;15.00;;;13.50;99.90;;;;;;4975505;28;20053;-70
2022/05/20 05:49:22;;;;;;;24.35;14.82;;;13.60;99.90;;;;;;4977532;28;20050;-69
2022/05/20 05:51:47;;;;;;;25.77;13.95;;;13.50;99.90;;;;;;4990408;28;20109;-70
2022/05/20 05:54:13;;;;;;;24.23;14.45;;;13.60;99.90;;;;;;4986536;28;20038;-70
2022/05/20 05:56:39;;;;;;;26.98;14.30;;;13.60;99.90;;;;;;4981772;28;20050;-69
2022/05/20 05:59:05;;;;;;;21.98;13.60;;;13.60;99.90;;;;;;4977734;28;20098;-69
2022/05/20 06:01:30;;;;;;;17.45;12.45;;;13.70;99.90;;;;;;4987493;28;20042;-70
2022/05/20 06:03:56;;;;;;;18.98;12.75;;;13.70;99.90;;;;;;4989085;28;20046;-70
2022/05/20 06:06:22;;;;;;;18.92;12.55;;;13.80;99.90;;;;;;4977936;28;20165;-69
2022/05/20 06:08:48;;;;;;;18.95;12.70;;;13.70;99.90;;;;;;4985814;28;20105;-69
2022/05/20 06:11:14;;;;;;;17.92;13.07;;;13.70;99.90;;;;;;4989966;28;20117;-70
2022/05/20 06:13:39;;;;;;;22.02;12.30;;;13.70;99.90;;;;;;4985259;28;20038;-69
2022/05/20 06:16:05;;;;;;;18.83;11.70;;;13.80;99.90;;;;;;4987126;28;20084;-70
2022/05/20 06:18:31;;;;;;;16.85;10.70;;;13.80;99.90;;;;;;4984752;28;20547;-70
2022/05/20 06:20:57;;;;;;;13.90;10.80;;;13.80;99.90;;;;;;4988152;28;20122;-69
2022/05/20 06:23:23;;;;;;;16.35;11.35;;;13.90;99.90;;;;;;4988455;28;20041;-69
2022/05/20 06:25:49;;;;;;;19.33;11.55;;;14.00;99.90;;;;;;4987002;28;20045;-70
2022/05/20 06:28:17;;;;;;;18.30;10.93;;;14.10;99.90;;;;;;4994516;28;20034;-69
2022/05/20 06:30:44;;;;;;;21.90;12.48;;;14.40;99.90;;;;;;4991349;28;20137;-69
2022/05/20 06:33:10;;;;;;;17.67;10.00;;;14.30;99.90;;;;;;4990627;28;20034;-70
2022/05/20 06:41:06;;;;;;;15.27;9.52;;;15.20;99.90;;;;;;4996307;28;20054;-68
2022/05/20 06:43:32;;;;;;;18.63;10.23;;;15.40;99.90;;;;;;4990787;28;20043;-69
2022/05/20 06:46:00;;;;;;;13.60;9.18;;;15.60;99.90;;;;;;4976703;28;20105;-69
2022/05/20 06:48:43;;;;;;;15.70;8.88;;;15.60;99.90;;;;;;4976607;28;20082;-69
2022/05/20 06:51:10;;;;;;;16.65;8.85;;;15.60;99.90;;;;;;4976690;28;20456;-69
2022/05/20 06:53:36;;;;;;;15.15;8.55;;;15.60;99.90;;;;;;4988038;28;20085;-70
2022/05/20 06:56:02;;;;;;;14.98;7.03;;;15.60;99.90;;;;;;4994699;28;20078;-68
2022/05/20 06:58:28;;;;;;;16.95;7.28;;;15.50;99.90;;;;;;4995905;28;20042;-68
2022/05/20 07:00:54;;;;;;;17.63;7.97;;;15.40;99.90;;;;;;4993260;28;20038;-69
2022/05/20 07:03:21;;;;;;;15.50;7.68;;;15.40;99.90;;;;;;4980015;28;20043;-69
2022/05/20 07:05:47;;;;;;;14.00;5.45;;;15.40;99.90;;;;;;4996033;28;20455;-68
2022/05/20 07:08:13;;;;;;;20.42;6.68;;;15.30;99.90;;;;;;4995106;28;20117;-73
2022/05/20 07:10:39;;;;;;;12.85;6.68;;;15.30;99.90;;;;;;4982228;28;20489;-70
2022/05/20 07:13:06;;;;;;;16.30;7.65;;;15.40;99.90;;;;;;4992628;28;20074;-70
2022/05/20 07:15:32;;;;;;;10.18;5.55;;;15.50;99.90;;;;;;4993740;28;20050;-70
2022/05/20 07:17:58;;;;;;;10.38;5.88;;;15.80;99.90;;;;;;4988879;28;20378;-69
2022/05/20 07:20:23;;;;;;;16.27;6.63;;;16.00;99.90;;;;;;4991419;28;20046;-69
2022/05/20 07:22:49;;;;;;;12.77;6.22;;;16.20;99.90;;;;;;4991930;28;20176;-70
2022/05/20 07:25:15;;;;;;;7.68;5.55;;;16.30;99.90;;;;;;4990113;28;20133;-69
2022/05/20 07:27:41;;;;;;;15.05;5.75;;;16.40;99.90;;;;;;4997422;28;20163;-69
2022/05/20 07:30:08;;;;;;;14.95;5.10;;;16.60;99.90;;;;;;4990130;28;20397;-70
2022/05/20 07:32:34;;;;;;;15.48;5.55;;;16.70;99.90;;;;;;4991594;28;20038;-69
2022/05/20 07:35:00;;;;;;;9.73;5.70;;;16.90;99.90;;;;;;4994800;28;20049;-67
2022/05/20 07:37:26;;;;;;;11.40;5.38;;;17.10;99.90;;;;;;4993864;28;20046;-70
2022/05/20 07:39:52;;;;;;;13.60;5.22;;;17.20;99.90;;;;;;4990095;28;20041;-69
2022/05/20 07:42:17;;;;;;;12.95;5.20;;;17.40;99.90;;;;;;4991088;28;20124;-69
2022/05/20 07:44:43;;;;;;;10.80;5.03;;;17.50;99.90;;;;;;4995586;28;20097;-69
2022/05/20 07:47:09;;;;;;;12.60;4.80;;;17.50;99.90;;;;;;4981317;28;20509;-70
2022/05/20 07:49:35;;;;;;;10.90;4.50;;;17.60;99.90;;;;;;4982792;28;20477;-68
2022/05/20 07:52:03;;;;;;;6.60;3.63;;;17.70;99.90;;;;;;4991856;28;20034;-69
2022/05/20 07:54:32;;;;;;;11.73;4.00;;;17.70;99.90;;;;;;4986606;28;20128;-69
2022/05/20 07:57:07;;;;;;;9.60;4.43;;;17.70;99.90;;;;;;4987264;28;20412;-69
2022/05/20 07:59:44;;;;;;;9.77;4.55;;;17.60;99.90;;;;;;4992985;28;20054;-69
2022/05/20 08:02:10;;;;;;;10.32;4.72;;;17.30;99.90;;;;;;4991494;28;20068;-69
2022/05/20 08:04:53;;;;;;;11.27;4.60;;;17.20;99.90;;;;;;4990554;28;20067;-69
2022/05/20 08:07:28;;;;;;;9.20;4.07;;;17.10;99.90;;;;;;4993139;28;20493;-72
2022/05/20 08:09:54;;;;;;;9.43;4.20;;;17.00;99.90;;;;;;4991899;28;20035;-69
2022/05/20 08:12:21;;;;;;;9.98;4.25;;;16.80;99.90;;;;;;4994241;28;20522;-69
2022/05/20 08:14:48;;;;;;;8.75;3.28;;;16.90;99.90;;;;;;4995672;28;20117;-70
2022/05/20 08:17:13;;;;;;;6.72;3.05;;;16.90;99.90;;;;;;4996713;28;20050;-69
2022/05/20 08:19:39;;;;;;;9.02;2.70;;;17.00;99.90;;;;;;4991163;28;20108;-69
2022/05/20 08:22:05;;;;;;;8.98;2.80;;;17.10;99.90;;;;;;4986456;28;20114;-69
2022/05/20 08:24:31;;;;;;;9.43;3.83;;;17.20;99.90;;;;;;4989884;28;20046;-70
2022/05/20 08:26:56;;;;;;;7.32;3.58;;;17.30;99.90;;;;;;4992927;28;20050;-69
2022/05/20 08:29:22;;;;;;;8.63;3.30;;;17.60;99.90;;;;;;4989398;28;20443;-68
2022/05/20 08:31:48;;;;;;;7.93;3.53;;;17.90;99.90;;;;;;4989750;28;20038;-68
2022/05/20 08:34:14;;;;;;;9.45;3.05;;;18.30;99.90;;;;;;4992514;28;20050;-69
2022/05/20 08:36:41;;;;;;;7.85;2.78;;;18.60;99.90;;;;;;4993975;28;20042;-69
2022/05/20 08:39:10;;;;;;;8.75;2.78;;;18.70;99.90;;;;;;4992495;28;20046;-69
2022/05/20 08:41:41;;;;;;;8.93;3.08;;;18.80;99.90;;;;;;4993130;28;20042;-70
2022/05/20 08:44:12;;;;;;;7.35;3.13;;;18.70;99.90;;;;;;4993432;28;20045;-69
2022/05/20 08:46:39;;;;;;;8.30;2.58;;;18.60;99.90;;;;;;4987256;28;20046;-70
2022/05/20 08:49:08;;;;;;;6.20;2.42;;;18.50;99.90;;;;;;4988935;28;20042;-69
2022/05/20 08:51:34;;;;;;;6.32;2.40;;;18.60;99.90;;;;;;4988724;28;20046;-70
2022/05/20 08:54:02;;;;;;;6.82;2.78;;;18.70;99.90;;;;;;4993708;28;20096;-69
2022/05/20 08:56:28;;;;;;;10.68;2.75;;;19.00;99.90;;;;;;4989836;28;20044;-69
2022/05/20 08:58:58;;;;;;;7.72;3.00;;;19.00;99.90;;;;;;4993465;28;20404;-68
2022/05/20 09:01:35;;;;;;;16.45;3.10;;;19.30;99.90;;;;;;4992845;28;20069;-68
2022/05/20 09:04:02;;;;;;;18.00;3.33;;;19.30;99.90;;;;;;4992952;28;20046;-68
2022/05/20 09:06:28;;;;;;;8.88;3.03;;;19.40;99.90;;;;;;4992148;28;20113;-70
2022/05/20 09:09:08;;;;;;;6.63;2.65;;;19.40;99.90;;;;;;4974457;28;20050;-70
2022/05/20 09:11:34;;;;;;;8.13;3.40;;;19.50;99.90;;;;;;4992035;28;20112;-70
2022/05/20 09:17:09;;;;;;;6.53;2.55;;;19.60;99.90;;;;;;4992088;28;20309;-69
2022/05/20 09:19:35;;;;;;;7.20;2.47;;;19.70;99.90;;;;;;4984938;28;20050;-70
2022/05/20 09:22:04;;;;;;;10.98;2.67;;;19.80;99.90;;;;;;4992265;28;20397;-69
2022/05/20 09:24:37;;;;;;;7.15;2.70;;;19.80;99.90;;;;;;4991584;28;20049;-69
2022/05/20 09:27:07;;;;;;;6.78;2.45;;;19.70;99.90;;;;;;4992198;28;20046;-69
2022/05/20 09:29:56;;;;;;;7.72;2.53;;;19.70;99.90;;;;;;4981863;28;20043;-69
2022/05/20 09:32:37;;;;;;;6.57;2.55;;;19.70;99.90;;;;;;4990353;28;20053;-69
2022/05/20 09:35:14;;;;;;;8.68;3.38;;;19.80;99.90;;;;;;4991607;28;20081;-70
2022/05/20 09:37:40;;;;;;;6.63;3.33;;;19.90;99.90;;;;;;4987293;28;20046;-69
2022/05/20 09:40:25;;;;;;;6.38;2.63;;;20.10;99.90;;;;;;4982503;28;20050;-69
2022/05/20 09:43:04;;;;;;;6.80;3.40;;;20.20;99.90;;;;;;4988173;28;20042;-69
2022/05/20 09:45:41;;;;;;;7.78;2.72;;;20.20;99.90;;;;;;4983538;28;20050;-70
2022/05/20 09:48:06;;;;;;;5.45;2.70;;;20.20;99.90;;;;;;4983427;28;20051;-69
2022/05/20 09:50:34;;;;;;;9.07;3.58;;;20.30;99.90;;;;;;4989894;28;20100;-69
2022/05/20 09:53:03;;;;;;;11.38;3.45;;;20.30;99.90;;;;;;4982903;28;20141;-70
2022/05/20 09:55:36;;;;;;;19.45;3.75;;;20.30;99.90;;;;;;4991688;28;20129;-69
2022/05/20 09:58:30;;;;;;;7.78;3.20;;;20.30;99.90;;;;;;4988392;28;20125;-70
2022/05/20 10:01:02;;;;;;;6.10;2.85;;;20.30;99.70;;;;;;4988667;28;20500;-69
2022/05/20 10:03:51;;;;;;;7.57;3.13;;;20.30;99.90;;;;;;4988994;28;20051;-68
2022/05/20 10:06:32;;;;;;;12.07;2.95;;;20.20;99.90;;;;;;4997220;28;20055;-68
2022/05/20 10:09:39;;;;;;;9.35;3.40;;;20.20;99.30;;;;;;4981005;28;20055;-69
2022/05/20 10:12:21;;;;;;;8.07;3.45;;;20.10;99.90;;;;;;4995375;28;20181;-69
2022/05/20 10:15:02;;;;;;;7.55;3.03;;;19.90;99.90;;;;;;4990544;28;20397;-69
2022/05/20 10:17:47;;;;;;;7.65;2.83;;;19.70;99.90;;;;;;4989482;28;20485;-69
2022/05/20 10:20:20;;;;;;;8.82;3.47;;;19.60;99.90;;;;;;4992414;28;20134;-70
2022/05/20 10:22:45;;;;;;;8.02;3.25;;;19.40;99.60;;;;;;4991239;28;20555;-69
2022/05/20 10:25:29;;;;;;;7.32;3.22;;;19.20;99.90;;;;;;4978940;28;20046;-70
2022/05/20 10:32:34;;;;;;;8.30;3.08;;;19.20;99.90;;;;;;4986141;28;20042;-70
2022/05/20 10:34:00;;;;;;;5.45;2.72;;;19.40;99.90;;;;;;4988537;28;20129;-68
2022/05/20 10:36:38;;;;;;;6.97;3.10;;;19.40;99.90;;;;;;4988221;28;20038;-68
2022/05/20 10:39:12;;;;;;;5.75;2.65;;;19.50;99.90;;;;;;4988238;28;20061;-69
2022/05/20 10:41:48;;;;;;;6.35;2.90;;;19.70;99.90;;;;;;4987822;28;20192;-68
2022/05/20 10:50:25;;;;;;;8.75;3.25;;;20.10;99.60;;;;;;4986915;28;20041;-68
2022/05/20 10:53:28;;;;;;;8.57;3.08;;;20.10;99.90;;;;;;4988677;28;20065;-69
2022/05/20 10:56:09;;;;;;;9.23;2.70;;;20.10;99.50;;;;;;4982679;28;20049;-70
2022/05/20 10:58:56;;;;;;;7.00;3.00;;;20.10;99.00;;;;;;4986948;28;20129;-70
2022/05/20 11:01:28;;;;;;;7.43;3.00;;;20.10;99.00;;;;;;4983824;28;20039;-68
2022/05/20 11:04:24;;;;;;;6.03;2.90;;;20.20;99.20;;;;;;4987938;28;20093;-68
2022/05/20 11:07:07;;;;;;;9.77;3.97;;;20.20;98.80;;;;;;4969813;28;20120;-69
2022/05/20 11:09:41;;;;;;;11.02;3.95;;;20.20;98.40;;;;;;4988413;28;20042;-70
2022/05/20 11:12:16;;;;;;;6.75;3.08;;;20.30;98.60;;;;;;4990809;28;20132;-69
2022/05/20 11:15:04;;;;;;;6.25;3.67;;;20.20;99.00;;;;;;4990870;28;20053;-68
2022/05/20 11:17:50;;;;;;;5.43;3.25;;;20.20;98.10;;;;;;4993079;28;20121;-69
2022/05/20 11:20:37;;;;;;;12.02;3.40;;;20.30;97.50;;;;;;4992218;28;20088;-69
2022/05/20 11:23:12;;;;;;;5.88;4.03;;;20.20;95.20;;;;;;4989717;28;20424;-70
2022/05/20 11:26:03;;;;;;;5.90;3.17;;;20.20;96.50;;;;;;4990502;28;20072;-68
2022/05/20 11:28:55;;;;;;;16.25;4.00;;;20.20;97.20;;;;;;4988678;28;20034;-69
2022/05/20 11:31:38;;;;;;;7.75;3.65;;;20.40;97.20;;;;;;4991530;28;20058;-69
2022/05/20 11:34:29;;;;;;;5.28;2.53;;;20.60;97.90;;;;;;4984510;28;20046;-69
2022/05/20 11:37:22;;;;;;;7.70;3.15;;;20.80;97.20;;;;;;4988590;28;20075;-69
2022/05/20 11:40:11;;;;;;;5.97;2.72;;;21.10;94.80;;;;;;4991635;28;20070;-69
2022/05/20 11:43:19;;;;;;;6.25;3.10;;;21.10;92.60;;;;;;4969437;28;20110;-68
2022/05/20 11:46:17;;;;;;;7.43;3.22;;;21.10;91.30;;;;;;4988293;28;20050;-68
2022/05/20 11:48:57;;;;;;;6.45;2.95;;;21.30;93.30;;;;;;4989356;28;20076;-70
2022/05/20 11:52:00;;;;;;;5.70;2.95;;;21.50;91.60;;;;;;4991694;28;20047;-68
2022/05/20 11:54:51;;;;;;;5.70;3.20;;;21.50;90.80;;;;;;4991433;28;20058;-70
2022/05/20 11:57:21;;;;;;;6.15;3.75;;;21.50;91.60;;;;;;4989687;28;20056;-68
2022/05/20 12:00:02;;;;;;;7.38;3.08;;;21.40;90.30;;;;;;4988576;28;20043;-69
2022/05/20 12:02:31;;;;;;;6.38;3.42;;;21.50;91.80;;;;;;4983758;28;20061;-70
2022/05/20 12:04:58;;;;;;;8.38;3.30;;;21.60;91.70;;;;;;4988943;28;20054;-69
2022/05/20 12:07:25;;;;;;;6.57;3.92;;;21.30;85.90;;;;;;4989685;28;20082;-69
2022/05/20 12:09:56;;;;;;;7.45;3.60;;;21.30;88.30;;;;;;4995569;28;20081;-69
2022/05/20 12:12:24;;;;;;;12.07;3.90;;;21.30;90.10;;;;;;4993745;28;20038;-69
2022/05/20 12:15:08;;;;;;;8.65;3.72;;;21.20;91.00;;;;;;4994177;28;20504;-70
2022/05/20 12:17:39;;;;;;;6.57;3.40;;;21.20;87.90;;;;;;4991811;28;20070;-70
2022/05/20 12:26:03;;;;;;;6.72;4.43;;;21.00;91.00;;;;;;5010047;28;20053;-70
2022/05/20 12:28:31;;;;;;;8.70;4.57;;;20.80;90.80;;;;;;4988016;28;20046;-70
2022/05/20 12:31:24;;;;;;;8.65;4.80;;;20.70;91.70;;;;;;4987008;28;20073;-70
2022/05/20 12:34:03;;;;;;;8.77;5.35;;;20.60;91.00;;;;;;4989662;28;20065;-70
2022/05/20 12:36:28;;;;;;;8.27;5.47;;;20.60;91.20;;;;;;4989444;28;20054;-69
2022/05/20 12:39:06;;;;;;;7.35;4.70;;;20.60;92.30;;;;;;5003068;28;20056;-71
2022/05/20 12:41:50;;;;;;;7.75;4.60;;;20.70;91.50;;;;;;4980342;28;20456;-70
2022/05/20 12:44:15;;;;;;;8.50;5.15;;;20.90;90.10;;;;;;4995664;28;20046;-70
2022/05/20 12:46:47;;;;;;;6.63;4.30;;;21.10;90.60;;;;;;4992115;28;20042;-71
2022/05/20 12:49:12;;;;;;;9.02;4.88;;;21.30;88.70;;;;;;4993402;28;20109;-70
2022/05/20 12:51:47;;;;;;;9.50;4.93;;;21.40;88.70;;;;;;4993587;28;20046;-71
2022/05/20 12:54:24;;;;;;;7.35;4.60;;;21.10;86.20;;;;;;4989326;28;20042;-71
2022/05/20 12:57:05;;;;;;;10.93;6.68;;;21.00;89.50;;;;;;4988852;28;20050;-69
2022/05/20 12:59:31;;;;;;;11.23;6.68;;;20.80;88.90;;;;;;4967926;28;20517;-69
2022/05/20 13:02:00;;;;;;;9.32;5.72;;;20.60;91.10;;;;;;4991072;28;20077;-68
2022/05/20 13:04:30;;;;;;;7.50;5.22;;;20.50;91.30;;;;;;4989571;28;20043;-70
2022/05/20 13:06:58;;;;;;;7.50;5.07;;;20.50;90.50;;;;;;4989189;28;20065;-70
2022/05/20 13:09:35;;;;;;;9.07;4.95;;;20.50;91.00;;;;;;4990285;28;20050;-69
2022/05/20 13:12:09;;;;;;;7.88;5.05;;;20.50;91.10;;;;;;4982502;28;20397;-69
2022/05/20 13:14:37;;;;;;;9.00;5.18;;;20.40;90.10;;;;;;4987115;28;20497;-69
2022/05/20 13:17:06;;;;;;;11.35;5.70;;;20.40;91.50;;;;;;4986723;28;20050;-70
2022/05/20 13:19:45;;;;;;;8.38;5.50;;;20.30;92.20;;;;;;4982141;28;20133;-69
2022/05/20 13:22:14;;;;;;;9.50;5.32;;;20.20;92.40;;;;;;4984851;28;20051;-69
2022/05/20 13:24:40;;;;;;;10.32;5.30;;;20.00;91.80;;;;;;4985654;28;20063;-68
2022/05/20 13:27:21;;;;;;;9.23;5.22;;;19.90;92.60;;;;;;4982540;28;20407;-69
2022/05/20 13:29:48;;;;;;;8.75;4.90;;;19.70;92.20;;;;;;4974134;28;20050;-70
2022/05/20 13:32:30;;;;;;;8.88;5.18;;;19.70;93.00;;;;;;4972568;28;20054;-70
2022/05/20 13:34:59;;;;;;;9.57;4.78;;;19.60;92.90;;;;;;4971494;28;20081;-70